Adana, Turkey
Current Conditions -  °F | °C
As of 1:50 PM on Friday 28 Nov 2014 (Local Time) from LTAF Reporting Station
Scattered Clouds Scattered Clouds  
Wind Chill: 63°   Ceiling: Unl
Heat Index: 63°   Visibility: 6mi
Dew Point: 45°   Wind: 8mph
Humidity: 52%   Direction: 140°SE
Pressure: 30.18"   Gusts: NA
Location:  36.82°N, 34.6°E
Report Text: LTAF 281050Z 14007KT 9999 SCT035 17/07 Q1022 NOSIG
Loading
Personal Weather Stations






























Interactive Weather Map New forecast layout! Learn more

10-Day Weather Forecast

Advertisements
Track Severe Weather on mobile